CA-0421 weather

CLOSED Youngstown (E.C. Air) Airport
Alberta, Canada

Public forecast

Using degrees Celsius for public forecast. Weather courtesy of forecast.io.

Closest aviation weather report (METAR) to Youngstown (E.C. Air) Airport

Closest report is Kindersley Airport, 72.9 nm (135.1 km) E. Retrieved 2020/04/09 14:00 UTC (28 minutes ago):

CYKY 091400Z 20007KT 15SM FEW100 BKN240 M07/M10 A3021 RMK AC1CI7 AC TR SLP271

Closest aviation forecast (TAF) to Youngstown (E.C. Air) Airport

Closest forecast is Wainwright Field 21 Airport, 77.9 nm (144.3 km) N. Retrieved UTC (0 seconds ago):